createdAt,value
2023-04-16T00:01:37.423Z,102158.94
2023-04-16T00:04:04.271Z,102153.25
2023-04-16T00:06:31.768Z,102161.25
2023-04-16T00:08:58.382Z,102155.56
2023-04-16T00:11:24.929Z,102153.47
2023-04-16T00:13:51.462Z,102163.31
2023-04-16T00:16:17.990Z,102165.69
2023-04-16T00:18:44.517Z,102153.06
2023-04-16T00:21:11.163Z,102153.06
2023-04-16T00:23:38.007Z,102153.25
2023-04-16T00:26:04.675Z,102155.78
2023-04-16T00:28:31.147Z,102146.75
2023-04-16T00:30:57.735Z,102157.88
2023-04-16T00:33:24.288Z,102156.81
2023-04-16T00:35:51.195Z,102158.28
2023-04-16T00:38:17.853Z,102157.63
2023-04-16T00:40:44.365Z,102150.50
2023-04-16T00:43:10.859Z,102163.94
2023-04-16T00:45:38.380Z,102157.25
2023-04-16T00:48:05.883Z,102158.06
2023-04-16T00:50:33.498Z,102159.78
2023-04-16T00:53:00.841Z,102150.97
2023-04-16T00:55:27.517Z,102153.28
2023-04-16T00:57:54.103Z,102156.41
2023-04-16T01:00:21.283Z,102151.38
2023-04-16T01:02:48.150Z,102146.53
2023-04-16T01:05:14.776Z,102152.63
2023-04-16T01:07:41.314Z,102152.44
2023-04-16T01:10:08.086Z,102152.44
2023-04-16T01:12:34.727Z,102150.56
2023-04-16T01:15:01.519Z,102149.72
2023-04-16T01:17:28.158Z,102144.63
2023-04-16T01:19:59.066Z,102152.44
2023-04-16T01:22:25.580Z,102140.69
2023-04-16T01:24:52.149Z,102141.72
2023-04-16T01:27:18.698Z,102150.56
2023-04-16T01:29:45.184Z,102151.16
2023-04-16T01:32:12.166Z,102146.75
2023-04-16T01:34:40.659Z,102150.31
2023-04-16T01:37:09.816Z,102149.69
2023-04-16T01:39:36.609Z,102150.75
2023-04-16T01:42:03.136Z,102158.53
2023-04-16T01:44:30.937Z,102146.56
2023-04-16T01:46:57.693Z,102158.94
2023-04-16T01:49:25.592Z,102152.03
2023-04-16T01:51:52.968Z,102159.56
2023-04-16T01:54:19.549Z,102163.97
2023-04-16T01:56:46.093Z,102156.81
2023-04-16T01:59:12.776Z,102156.81
2023-04-16T02:01:42.459Z,102156.41
2023-04-16T02:04:10.036Z,102170.25
2023-04-16T02:06:36.667Z,102165.25
2023-04-16T02:09:03.429Z,102157.44
2023-04-16T02:11:29.962Z,102159.78
2023-04-16T02:13:56.591Z,102159.56
2023-04-16T02:16:24.040Z,102151.59
2023-04-16T02:18:53.464Z,102162.72
2023-04-16T02:21:22.351Z,102155.19
2023-04-16T02:23:51.681Z,102158.28
2023-04-16T02:26:22.467Z,102153.91
2023-04-16T02:28:50.980Z,102150.56
2023-04-16T02:31:21.624Z,102142.38
2023-04-16T02:33:48.199Z,102156.44
2023-04-16T02:36:14.911Z,102153.91
2023-04-16T02:38:41.479Z,102154.56
2023-04-16T02:41:08.775Z,102153.94
2023-04-16T02:43:35.459Z,102151.81
2023-04-16T02:46:02.227Z,102160.44
2023-04-16T02:48:28.833Z,102155.78
2023-04-16T02:50:55.664Z,102155.38
2023-04-16T02:53:22.306Z,102162.94
2023-04-16T02:55:52.786Z,102174.31
2023-04-16T02:58:24.080Z,102163.97
2023-04-16T03:00:51.511Z,102166.94
2023-04-16T03:03:18.175Z,102169.44
2023-04-16T03:05:44.785Z,102167.56
2023-04-16T03:08:11.645Z,102172.59
2023-04-16T03:10:38.185Z,102169.22
2023-04-16T03:13:05.095Z,102174.50
2023-04-16T03:15:31.708Z,102175.94
2023-04-16T03:17:58.360Z,102179.50
2023-04-16T03:20:25.376Z,102179.94
2023-04-16T03:22:53.205Z,102183.91
2023-04-16T03:25:20.017Z,102177.81
2023-04-16T03:27:46.589Z,102180.31
2023-04-16T03:30:14.826Z,102181.41
2023-04-16T03:32:41.604Z,102178.25
2023-04-16T03:35:09.188Z,102181.16
2023-04-16T03:37:37.059Z,102181.41
2023-04-16T03:40:05.813Z,102181.41
2023-04-16T03:42:32.524Z,102187.91
2023-04-16T03:44:59.490Z,102185.59
2023-04-16T03:47:26.576Z,102178.84
2023-04-16T03:49:56.869Z,102184.38
2023-04-16T03:52:23.720Z,102179.28
2023-04-16T03:54:53.076Z,102182.03
2023-04-16T03:57:25.043Z,102180.75
2023-04-16T03:59:55.195Z,102186.22
2023-04-16T04:02:22.538Z,102181.81
2023-04-16T04:04:49.477Z,102180.75
2023-04-16T04:07:16.362Z,102192.50
2023-04-16T04:09:42.965Z,102189.56
2023-04-16T04:12:09.979Z,102184.94
2023-04-16T04:14:39.921Z,102183.47
2023-04-16T04:17:07.967Z,102181.38
2023-04-16T04:19:34.679Z,102186.84
2023-04-16T04:22:02.501Z,102190.00
2023-04-16T04:24:29.077Z,102188.31
2023-04-16T04:26:57.479Z,102191.66
2023-04-16T04:29:24.225Z,102191.03
2023-04-16T04:31:51.210Z,102187.03
2023-04-16T04:34:17.828Z,102193.75
2023-04-16T04:36:44.800Z,102193.53
2023-04-16T04:39:13.359Z,102203.00
2023-04-16T04:41:42.770Z,102203.66
2023-04-16T04:44:09.264Z,102208.91
2023-04-16T04:46:35.991Z,102211.84
2023-04-16T04:49:02.558Z,102207.84
2023-04-16T04:51:29.180Z,102211.84
2023-04-16T04:53:56.858Z,102215.19
2023-04-16T04:56:23.494Z,102217.94
2023-04-16T04:58:51.006Z,102211.84
2023-04-16T05:01:19.460Z,102212.47
2023-04-16T05:03:46.244Z,102211.88
2023-04-16T05:06:12.821Z,102213.34
2023-04-16T05:08:39.336Z,102213.13
2023-04-16T05:11:05.976Z,102220.06
2023-04-16T05:13:32.530Z,102213.13
2023-04-16T05:15:59.699Z,102217.13
2023-04-16T05:18:26.701Z,102212.47
2023-04-16T05:20:53.353Z,102225.31
2023-04-16T05:23:19.816Z,102217.13
2023-04-16T05:25:46.306Z,102215.22
2023-04-16T05:28:12.827Z,102233.72
2023-04-16T05:30:39.440Z,102233.25
2023-04-16T05:33:05.992Z,102226.91
2023-04-16T05:35:32.488Z,102236.16
2023-04-16T05:37:59.013Z,102230.28
2023-04-16T05:40:26.185Z,102234.88
2023-04-16T05:42:52.807Z,102236.53
2023-04-16T05:45:19.342Z,102239.09
2023-04-16T05:47:45.824Z,102244.97
2023-04-16T05:50:12.383Z,102240.38
2023-04-16T05:52:38.929Z,102243.78
2023-04-16T05:55:06.200Z,102247.72
2023-04-16T05:57:33.341Z,102251.13
2023-04-16T05:59:59.865Z,102255.22
2023-04-16T06:02:26.554Z,102256.28
2023-04-16T06:04:53.219Z,102253.78
2023-04-16T06:07:19.677Z,102249.56
2023-04-16T06:09:46.281Z,102257.34
2023-04-16T06:12:12.791Z,102258.19
2023-04-16T06:14:39.264Z,102249.16
2023-04-16T06:17:05.899Z,102251.69
2023-04-16T06:19:32.398Z,102255.47
2023-04-16T06:21:59.120Z,102255.66
2023-04-16T06:24:25.654Z,102261.78
2023-04-16T06:26:52.226Z,102264.69
2023-04-16T06:29:18.760Z,102263.03
2023-04-16T06:31:45.339Z,102260.94
2023-04-16T06:34:11.914Z,102267.22
2023-04-16T06:36:38.544Z,102275.63
2023-04-16T06:39:05.074Z,102268.94
2023-04-16T06:41:31.601Z,102283.59
2023-04-16T06:43:58.088Z,102281.47
2023-04-16T06:46:24.605Z,102282.56
2023-04-16T06:48:51.211Z,102279.84
2023-04-16T06:51:17.756Z,102288.66
2023-04-16T06:53:45.409Z,102290.63
2023-04-16T06:56:11.919Z,102297.13
2023-04-16T06:58:38.526Z,102295.44
2023-04-16T07:01:05.653Z,102286.84
2023-04-16T07:03:32.461Z,102289.78
2023-04-16T07:05:59.042Z,102302.00
2023-04-16T07:08:25.657Z,102314.78
2023-04-16T07:10:53.727Z,102307.84
2023-04-16T07:13:21.065Z,102311.88
2023-04-16T07:15:47.954Z,102309.75
2023-04-16T07:18:14.686Z,102315.59
2023-04-16T07:20:41.237Z,102313.91
2023-04-16T07:23:07.781Z,102313.50
2023-04-16T07:25:34.272Z,102314.78
2023-04-16T07:28:00.760Z,102317.81
2023-04-16T07:30:33.937Z,102321.72
2023-04-16T07:33:02.687Z,102322.34
2023-04-16T07:35:30.250Z,102322.78
2023-04-16T07:37:56.908Z,102324.44
2023-04-16T07:40:24.871Z,102320.25
2023-04-16T07:42:51.754Z,102328.88
2023-04-16T07:45:19.191Z,102332.03
2023-04-16T07:47:46.126Z,102340.41
2023-04-16T07:50:13.181Z,102330.97
2023-04-16T07:52:41.322Z,102342.19
2023-04-16T07:55:10.848Z,102340.41
2023-04-16T07:57:37.477Z,102350.94
2023-04-16T08:00:07.453Z,102345.88
2023-04-16T08:02:40.104Z,102349.03
2023-04-16T08:05:07.326Z,102353.47
2023-04-16T08:07:34.790Z,102353.88
2023-04-16T08:10:01.629Z,102361.94
2023-04-16T08:12:29.495Z,102356.53
2023-04-16T08:14:56.231Z,102365.06
2023-04-16T08:17:22.888Z,102364.19
2023-04-16T08:19:49.465Z,102367.41
2023-04-16T08:22:16.649Z,102370.88
2023-04-16T08:24:43.142Z,102361.19
2023-04-16T08:27:18.659Z,102368.56
2023-04-16T08:29:46.756Z,102371.75
2023-04-16T08:32:13.236Z,102372.34
2023-04-16T08:34:39.820Z,102374.25
2023-04-16T08:37:06.364Z,102378.38
2023-04-16T08:39:32.967Z,102381.59
2023-04-16T08:42:02.311Z,102370.66
2023-04-16T08:44:33.819Z,102382.66
2023-04-16T08:47:02.148Z,102381.84
2023-04-16T08:49:29.335Z,102383.28
2023-04-16T08:51:56.956Z,102384.13
2023-04-16T08:54:37.749Z,102385.41
2023-04-16T08:57:07.514Z,102390.03
2023-04-16T08:59:34.319Z,102388.31
2023-04-16T09:02:01.989Z,102389.38
2023-04-16T09:04:29.479Z,102396.09
2023-04-16T09:06:57.377Z,102400.72
2023-04-16T09:09:26.242Z,102393.38
2023-04-16T09:11:54.039Z,102398.84
2023-04-16T09:14:21.950Z,102401.81
2023-04-16T09:16:49.465Z,102404.78
2023-04-16T09:19:16.111Z,102405.63
2023-04-16T09:21:46.566Z,102413.00
2023-04-16T09:24:13.415Z,102409.59
2023-04-16T09:26:43.290Z,102412.75
2023-04-16T09:29:10.258Z,102414.81
2023-04-16T09:31:37.163Z,102416.53
2023-04-16T09:34:08.700Z,102420.94
2023-04-16T09:36:36.381Z,102412.09
2023-04-16T09:39:03.859Z,102424.72
2023-04-16T09:41:32.723Z,102422.84
2023-04-16T09:44:00.921Z,102432.91
2023-04-16T09:46:34.395Z,102430.19
2023-04-16T09:49:13.851Z,102432.97
2023-04-16T09:51:45.186Z,102442.22
2023-04-16T09:54:11.847Z,102437.78
2023-04-16T09:56:46.462Z,102442.66
2023-04-16T09:59:20.412Z,102440.56
2023-04-16T10:01:49.271Z,102435.47
2023-04-16T10:04:16.600Z,102431.06
2023-04-16T10:06:43.260Z,102438.91
2023-04-16T10:09:11.111Z,102442.25
2023-04-16T10:11:38.287Z,102442.91
2023-04-16T10:14:05.085Z,102434.91
2023-04-16T10:16:32.921Z,102439.78
2023-04-16T10:18:59.749Z,102441.47
2023-04-16T10:21:33.687Z,102445.66
2023-04-16T10:24:01.161Z,102449.22
2023-04-16T10:26:29.855Z,102453.84
2023-04-16T10:28:58.240Z,102449.00
2023-04-16T10:31:26.644Z,102445.00
2023-04-16T10:33:53.754Z,102444.41
2023-04-16T10:36:24.491Z,102445.69
2023-04-16T10:38:54.969Z,102453.66
2023-04-16T10:41:21.599Z,102444.84
2023-04-16T10:43:51.169Z,102450.28
2023-04-16T10:46:20.179Z,102451.78
2023-04-16T10:48:50.341Z,102453.91
2023-04-16T10:51:29.689Z,102453.47
2023-04-16T10:54:03.914Z,102453.66
2023-04-16T10:56:33.021Z,102452.63
2023-04-16T10:58:59.553Z,102444.22
2023-04-16T11:01:34.057Z,102450.56
2023-04-16T11:04:21.659Z,102445.50
2023-04-16T11:07:15.049Z,102451.84
2023-04-16T11:09:56.780Z,102451.00
2023-04-16T11:12:27.699Z,102437.31
2023-04-16T11:14:58.742Z,102452.03
2023-04-16T11:17:29.212Z,102449.28
2023-04-16T11:19:55.916Z,102443.81
2023-04-16T11:22:22.724Z,102444.91
2023-04-16T11:24:54.327Z,102449.53
2023-04-16T11:27:21.029Z,102449.34
2023-04-16T11:30:06.303Z,102451.03
2023-04-16T11:32:37.249Z,102455.25
2023-04-16T11:35:12.688Z,102453.97
2023-04-16T11:37:39.304Z,102459.63
2023-04-16T11:40:06.939Z,102452.09
2023-04-16T11:42:37.220Z,102454.81
2023-04-16T11:45:04.827Z,102459.25
2023-04-16T11:47:31.679Z,102446.63
2023-04-16T11:50:05.816Z,102440.09
2023-04-16T11:52:33.181Z,102457.78
2023-04-16T11:54:59.874Z,102456.34
2023-04-16T11:57:30.838Z,102464.53
2023-04-16T12:00:01.405Z,102457.38
2023-04-16T12:02:57.444Z,102467.91
2023-04-16T12:05:31.286Z,102471.28
2023-04-16T12:08:05.854Z,102470.03
2023-04-16T12:10:37.710Z,102472.09
2023-04-16T12:13:11.721Z,102478.41
2023-04-16T12:15:48.846Z,102483.91
2023-04-16T12:18:16.385Z,102483.69
2023-04-16T12:20:44.092Z,102481.78
2023-04-16T12:23:24.329Z,102482.66
2023-04-16T12:25:52.022Z,102482.22
2023-04-16T12:28:35.875Z,102485.22
2023-04-16T12:31:03.411Z,102476.97
2023-04-16T12:33:30.405Z,102474.88
2023-04-16T12:35:57.294Z,102476.97
2023-04-16T12:38:25.398Z,102475.91
2023-04-16T12:40:52.703Z,102473.81
2023-04-16T12:43:21.413Z,102476.34
2023-04-16T12:45:47.980Z,102468.56
2023-04-16T12:48:14.548Z,102471.28
2023-04-16T12:50:44.089Z,102481.81
2023-04-16T12:53:10.803Z,102477.56
2023-04-16T12:55:37.427Z,102481.16
2023-04-16T12:58:04.002Z,102480.13
2023-04-16T13:00:30.532Z,102477.38
2023-04-16T13:02:57.208Z,102480.75
2023-04-16T13:05:23.895Z,102478.00
2023-04-16T13:07:50.597Z,102486.22
2023-04-16T13:10:17.363Z,102475.06
2023-04-16T13:12:43.897Z,102480.75
2023-04-16T13:15:11.012Z,102490.88
2023-04-16T13:17:37.600Z,102479.94
2023-04-16T13:20:04.507Z,102477.81
2023-04-16T13:22:31.146Z,102476.53
2023-04-16T13:24:57.718Z,102476.34
2023-04-16T13:27:24.273Z,102472.56
2023-04-16T13:29:50.862Z,102477.81
2023-04-16T13:32:18.796Z,102478.06
2023-04-16T13:34:45.457Z,102477.19
2023-04-16T13:37:11.920Z,102474.91
2023-04-16T13:39:38.422Z,102474.69
2023-04-16T13:42:04.980Z,102481.44
2023-04-16T13:44:31.534Z,102480.19
2023-04-16T13:46:58.772Z,102478.47
2023-04-16T13:49:25.676Z,102482.50
2023-04-16T13:51:52.232Z,102481.44
2023-04-16T13:54:18.720Z,102485.88
2023-04-16T13:56:45.281Z,102476.63
2023-04-16T13:59:11.970Z,102475.13
2023-04-16T14:01:38.649Z,102480.19
2023-04-16T14:04:06.764Z,102475.97
2023-04-16T14:06:34.652Z,102480.19
2023-04-16T14:09:01.712Z,102489.03
2023-04-16T14:11:28.476Z,102487.78
2023-04-16T14:13:55.461Z,102479.94
2023-04-16T14:16:22.152Z,102481.44
2023-04-16T14:18:48.767Z,102475.13
2023-04-16T14:21:15.640Z,102475.56
2023-04-16T14:23:42.202Z,102477.25
2023-04-16T14:26:08.855Z,102483.75
2023-04-16T14:28:35.743Z,102479.13
2023-04-16T14:31:02.355Z,102473.84
2023-04-16T14:33:28.980Z,102475.34
2023-04-16T14:35:55.654Z,102476.63
2023-04-16T14:38:22.291Z,102479.13
2023-04-16T14:40:48.794Z,102473.03
2023-04-16T14:43:15.443Z,102479.13
2023-04-16T14:45:41.964Z,102475.16
2023-04-16T14:48:08.509Z,102464.84
2023-04-16T14:50:38.870Z,102468.00
2023-04-16T14:53:05.873Z,102466.72
2023-04-16T14:55:32.684Z,102464.63
2023-04-16T14:57:59.729Z,102455.56
2023-04-16T15:00:27.467Z,102455.56
2023-04-16T15:02:57.618Z,102451.16
2023-04-16T15:05:24.315Z,102449.50
2023-04-16T15:07:51.180Z,102455.56
2023-04-16T15:10:17.923Z,102459.81
2023-04-16T15:12:44.445Z,102456.41
2023-04-16T15:15:11.231Z,102451.56
2023-04-16T15:17:37.932Z,102453.06
2023-04-16T15:20:08.046Z,102451.97
2023-04-16T15:22:34.921Z,102452.63
2023-04-16T15:25:01.576Z,102456.22
2023-04-16T15:27:28.126Z,102458.31
2023-04-16T15:29:55.057Z,102458.09
2023-04-16T15:32:21.664Z,102458.50
2023-04-16T15:34:48.229Z,102452.00
2023-04-16T15:37:15.464Z,102465.69
2023-04-16T15:39:42.009Z,102463.38
2023-04-16T15:42:08.684Z,102461.06
2023-04-16T15:44:35.249Z,102459.13
2023-04-16T15:47:01.809Z,102458.31
2023-04-16T15:49:28.399Z,102457.25
2023-04-16T15:51:55.865Z,102460.00
2023-04-16T15:54:22.431Z,102458.72
2023-04-16T15:56:48.970Z,102456.63
2023-04-16T15:59:16.074Z,102457.47
2023-04-16T16:01:42.602Z,102458.53
2023-04-16T16:04:09.737Z,102463.81
2023-04-16T16:06:38.078Z,102458.09
2023-04-16T16:09:04.956Z,102461.47
2023-04-16T16:11:32.564Z,102454.50
2023-04-16T16:14:02.934Z,102458.94
2023-04-16T16:16:29.552Z,102450.72
2023-04-16T16:18:56.482Z,102453.69
2023-04-16T16:21:23.134Z,102458.94
2023-04-16T16:23:49.765Z,102464.63
2023-04-16T16:26:16.439Z,102461.06
2023-04-16T16:28:44.586Z,102462.50
2023-04-16T16:31:12.261Z,102473.47
2023-04-16T16:33:40.398Z,102468.00
2023-04-16T16:36:10.895Z,102462.50
2023-04-16T16:38:37.944Z,102462.75
2023-04-16T16:41:04.497Z,102457.47
2023-04-16T16:43:31.431Z,102458.75
2023-04-16T16:45:57.981Z,102456.63
2023-04-16T16:48:24.630Z,102472.00
2023-04-16T16:50:51.154Z,102471.16
2023-04-16T16:53:17.697Z,102474.94
2023-04-16T16:55:44.222Z,102468.44
2023-04-16T16:58:11.166Z,102466.13
2023-04-16T17:00:37.982Z,102473.06
2023-04-16T17:03:04.678Z,102468.63
2023-04-16T17:05:31.397Z,102477.91
2023-04-16T17:07:57.936Z,102474.53
2023-04-16T17:10:25.087Z,102475.19
2023-04-16T17:12:51.878Z,102476.03
2023-04-16T17:15:21.142Z,102472.22
2023-04-16T17:17:48.553Z,102469.06
2023-04-16T17:20:15.575Z,102478.13
2023-04-16T17:22:42.391Z,102473.06
2023-04-16T17:25:09.107Z,102478.13
2023-04-16T17:27:35.735Z,102481.06
2023-04-16T17:30:03.435Z,102482.34
2023-04-16T17:32:32.437Z,102476.44
2023-04-16T17:35:00.497Z,102480.00
2023-04-16T17:37:27.341Z,102478.56
2023-04-16T17:39:53.916Z,102485.72
2023-04-16T17:42:20.551Z,102479.41
2023-04-16T17:44:47.557Z,102486.13
2023-04-16T17:47:14.243Z,102478.13
2023-04-16T17:49:40.839Z,102488.84
2023-04-16T17:52:07.341Z,102490.97
2023-04-16T17:54:33.857Z,102500.03
2023-04-16T17:57:00.550Z,102491.19
2023-04-16T17:59:27.339Z,102491.41
2023-04-16T18:01:54.736Z,102500.25
2023-04-16T18:04:21.622Z,102495.19
2023-04-16T18:06:48.389Z,102499.81
2023-04-16T18:09:15.405Z,102497.50
2023-04-16T18:11:42.006Z,102497.50
2023-04-16T18:14:09.931Z,102500.44
2023-04-16T18:16:36.798Z,102505.06
2023-04-16T18:19:03.356Z,102502.56
2023-04-16T18:21:30.371Z,102506.53
2023-04-16T18:23:57.380Z,102508.47
2023-04-16T18:26:25.312Z,102506.13
2023-04-16T18:28:52.002Z,102516.03
2023-04-16T18:31:21.207Z,102510.56
2023-04-16T18:33:56.403Z,102513.50
2023-04-16T18:36:24.553Z,102522.56
2023-04-16T18:39:01.021Z,102524.44
2023-04-16T18:41:29.806Z,102529.09
2023-04-16T18:43:56.443Z,102530.16
2023-04-16T18:46:23.068Z,102523.22
2023-04-16T18:48:49.690Z,102525.72
2023-04-16T18:51:16.730Z,102531.63
2023-04-16T18:53:45.451Z,102533.72
2023-04-16T18:56:12.323Z,102527.41
2023-04-16T18:58:38.899Z,102532.88
2023-04-16T19:01:10.827Z,102530.16
2023-04-16T19:03:38.051Z,102536.66
2023-04-16T19:06:04.882Z,102534.97
2023-04-16T19:08:31.410Z,102536.91
2023-04-16T19:10:57.982Z,102537.09
2023-04-16T19:13:24.544Z,102534.53
2023-04-16T19:15:51.054Z,102537.50
2023-04-16T19:18:17.623Z,102535.81
2023-04-16T19:20:44.089Z,102538.56
2023-04-16T19:23:11.423Z,102540.63
2023-04-16T19:25:39.358Z,102538.13
2023-04-16T19:28:05.869Z,102532.00
2023-04-16T19:30:32.568Z,102537.91
2023-04-16T19:32:59.172Z,102533.69
2023-04-16T19:35:25.834Z,102534.34
2023-04-16T19:37:52.372Z,102539.16
2023-04-16T19:40:19.108Z,102538.97
2023-04-16T19:42:45.793Z,102540.03
2023-04-16T19:45:12.358Z,102538.31
2023-04-16T19:47:39.033Z,102540.44
2023-04-16T19:50:06.373Z,102550.13
2023-04-16T19:52:38.591Z,102549.50
2023-04-16T19:55:06.407Z,102560.84
2023-04-16T19:57:33.136Z,102556.44
2023-04-16T19:59:59.739Z,102555.59
2023-04-16T20:02:26.436Z,102554.75
2023-04-16T20:04:53.123Z,102553.03
2023-04-16T20:07:20.509Z,102557.91
2023-04-16T20:09:47.236Z,102569.47
2023-04-16T20:12:14.323Z,102567.78
2023-04-16T20:14:41.747Z,102574.09
2023-04-16T20:17:09.908Z,102575.38
2023-04-16T20:19:39.486Z,102574.50
2023-04-16T20:22:06.540Z,102570.09
2023-04-16T20:24:33.114Z,102569.47
2023-04-16T20:26:59.710Z,102572.38
2023-04-16T20:29:26.250Z,102567.34
2023-04-16T20:31:52.757Z,102563.13
2023-04-16T20:34:19.382Z,102566.06
2023-04-16T20:36:46.064Z,102561.53
2023-04-16T20:39:12.830Z,102557.72
2023-04-16T20:41:44.232Z,102559.88
2023-04-16T20:44:17.944Z,102555.59
2023-04-16T20:46:49.422Z,102545.13
2023-04-16T20:49:17.537Z,102554.38
2023-04-16T20:51:44.184Z,102545.31
2023-04-16T20:54:10.941Z,102549.31
2023-04-16T20:56:37.515Z,102554.38
2023-04-16T20:59:04.113Z,102550.78
2023-04-16T21:01:30.773Z,102550.66
2023-04-16T21:03:57.630Z,102555.03
2023-04-16T21:06:24.298Z,102559.44
2023-04-16T21:08:51.040Z,102551.19
2023-04-16T21:11:17.588Z,102557.09
2023-04-16T21:13:44.162Z,102557.31
2023-04-16T21:16:12.387Z,102556.66
2023-04-16T21:18:39.084Z,102552.63
2023-04-16T21:21:06.015Z,102561.06
2023-04-16T21:23:32.581Z,102559.16
2023-04-16T21:25:59.094Z,102565.03
2023-04-16T21:28:25.781Z,102569.69
2023-04-16T21:30:52.883Z,102565.44
2023-04-16T21:33:19.421Z,102566.69
2023-04-16T21:35:51.703Z,102569.63
2023-04-16T21:38:18.497Z,102570.69
2023-04-16T21:40:50.774Z,102567.28
2023-04-16T21:43:17.813Z,102562.66
2023-04-16T21:45:44.394Z,102557.41
2023-04-16T21:48:10.980Z,102562.03
2023-04-16T21:50:37.768Z,102562.03
2023-04-16T21:53:06.618Z,102565.81
2023-04-16T21:55:34.615Z,102564.13
2023-04-16T21:58:01.593Z,102563.28
2023-04-16T22:00:28.160Z,102565.81
2023-04-16T22:02:55.917Z,102559.50
2023-04-16T22:05:24.082Z,102549.81
2023-04-16T22:07:51.391Z,102566.44
2023-04-16T22:10:18.392Z,102559.09
2023-04-16T22:12:45.647Z,102565.22
2023-04-16T22:15:13.796Z,102560.78
2023-04-16T22:17:40.860Z,102554.28
2023-04-16T22:20:14.474Z,102555.06
2023-04-16T22:22:42.258Z,102550.41
2023-04-16T22:25:09.656Z,102558.22
2023-04-16T22:27:36.483Z,102553.25
2023-04-16T22:30:04.086Z,102563.03
2023-04-16T22:32:30.867Z,102560.69
2023-04-16T22:34:57.570Z,102561.34
2023-04-16T22:37:24.384Z,102546.53
2023-04-16T22:39:50.942Z,102561.09
2023-04-16T22:42:17.410Z,102556.22
2023-04-16T22:44:43.955Z,102564.63
2023-04-16T22:47:10.446Z,102555.16
2023-04-16T22:49:36.961Z,102565.25
2023-04-16T22:52:03.575Z,102566.28
2023-04-16T22:54:30.702Z,102573.88
2023-04-16T22:56:57.614Z,102571.50
2023-04-16T22:59:24.675Z,102572.97
2023-04-16T23:01:51.903Z,102570.44
2023-04-16T23:04:18.655Z,102573.81
2023-04-16T23:06:46.213Z,102571.88
2023-04-16T23:09:13.032Z,102562.38
2023-04-16T23:11:39.887Z,102570.00
2023-04-16T23:14:06.422Z,102569.16
2023-04-16T23:16:33.026Z,102567.53
2023-04-16T23:18:59.644Z,102568.72
2023-04-16T23:21:26.349Z,102558.88
2023-04-16T23:23:52.873Z,102568.09
2023-04-16T23:26:19.454Z,102563.88
2023-04-16T23:28:45.976Z,102560.50
2023-04-16T23:31:12.521Z,102564.25
2023-04-16T23:33:39.128Z,102564.25
2023-04-16T23:36:06.043Z,102565.97
2023-04-16T23:38:32.628Z,102561.34
2023-04-16T23:40:59.192Z,102557.75
2023-04-16T23:43:25.745Z,102558.78
2023-04-16T23:45:52.759Z,102564.47
2023-04-16T23:48:19.386Z,102559.19
2023-04-16T23:50:45.913Z,102568.06
2023-04-16T23:53:12.732Z,102562.59
2023-04-16T23:55:39.744Z,102562.59
2023-04-16T23:58:06.246Z,102555.84
